createdAt,value
2022-09-27T00:01:01.626Z,1.67
2022-09-27T00:03:29.821Z,1.33
2022-09-27T00:06:04.109Z,1.55
2022-09-27T00:08:31.450Z,1.65
2022-09-27T00:11:03.156Z,2.00
2022-09-27T00:13:30.306Z,1.13
2022-09-27T00:16:04.829Z,1.75
2022-09-27T00:18:33.065Z,1.25
2022-09-27T00:21:11.276Z,1.02
2022-09-27T00:23:38.951Z,1.67
2022-09-27T00:26:07.791Z,1.50
2022-09-27T00:28:35.162Z,1.10
2022-09-27T00:31:02.872Z,0.77
2022-09-27T00:33:29.898Z,1.63
2022-09-27T00:36:04.734Z,1.48
2022-09-27T00:38:31.632Z,1.20
2022-09-27T00:40:58.544Z,1.30
2022-09-27T00:43:25.439Z,1.52
2022-09-27T00:46:00.839Z,1.15
2022-09-27T00:48:31.730Z,0.80
2022-09-27T00:51:03.532Z,1.15
2022-09-27T00:53:49.357Z,1.05
2022-09-27T00:56:22.216Z,1.35
2022-09-27T00:59:03.682Z,1.00
2022-09-27T01:01:30.958Z,1.33
2022-09-27T01:04:26.737Z,1.45
2022-09-27T01:06:53.830Z,1.95
2022-09-27T01:09:21.528Z,1.42
2022-09-27T01:11:56.526Z,1.83
2022-09-27T01:14:52.414Z,1.13
2022-09-27T01:17:35.186Z,1.30
2022-09-27T01:20:15.612Z,1.25
2022-09-27T01:23:19.781Z,1.50
2022-09-27T01:26:09.748Z,0.98
2022-09-27T01:29:04.225Z,1.50
2022-09-27T01:31:48.482Z,2.10
2022-09-27T01:34:43.705Z,3.45
2022-09-27T01:37:54.873Z,0.98
2022-09-27T01:40:48.145Z,1.13
2022-09-27T01:43:30.977Z,1.35
2022-09-27T01:46:20.515Z,1.45
2022-09-27T01:48:50.077Z,1.48
2022-09-27T01:51:20.632Z,2.35
2022-09-27T01:53:56.558Z,1.20
2022-09-27T01:56:43.511Z,1.30
2022-09-27T01:59:31.129Z,1.50
2022-09-27T02:02:02.955Z,0.73
2022-09-27T02:04:33.785Z,0.90
2022-09-27T02:07:30.628Z,1.42
2022-09-27T02:10:01.804Z,1.20
2022-09-27T02:12:33.207Z,1.30
2022-09-27T02:15:10.050Z,1.30
2022-09-27T02:17:55.711Z,1.30
2022-09-27T02:20:25.420Z,1.20
2022-09-27T02:23:08.575Z,1.13
2022-09-27T02:25:39.057Z,1.00
2022-09-27T02:28:25.233Z,0.85
2022-09-27T02:30:52.699Z,1.23
2022-09-27T02:33:49.409Z,1.40
2022-09-27T02:36:17.625Z,0.90
2022-09-27T02:38:45.111Z,1.08
2022-09-27T02:41:17.934Z,1.20
2022-09-27T02:43:48.249Z,0.70
2022-09-27T02:46:24.078Z,0.93
2022-09-27T02:49:22.650Z,0.88
2022-09-27T02:52:20.041Z,1.02
2022-09-27T02:58:03.092Z,0.93
2022-09-27T03:01:06.941Z,0.80
2022-09-27T03:03:52.448Z,0.50
2022-09-27T03:06:22.685Z,0.98
2022-09-27T03:08:50.776Z,1.52
2022-09-27T03:11:17.849Z,1.92
2022-09-27T03:14:01.879Z,1.02
2022-09-27T03:16:32.041Z,0.98
2022-09-27T03:18:58.922Z,1.77
2022-09-27T03:21:26.176Z,1.42
2022-09-27T03:23:53.041Z,1.05
2022-09-27T03:26:19.901Z,0.75
2022-09-27T03:28:46.752Z,1.13
2022-09-27T03:31:14.767Z,1.08
2022-09-27T03:33:41.700Z,1.23
2022-09-27T03:36:08.557Z,1.13
2022-09-27T03:38:35.396Z,0.77
2022-09-27T03:41:02.511Z,2.40
2022-09-27T03:43:29.426Z,1.20
2022-09-27T03:45:56.348Z,1.20
2022-09-27T03:48:27.790Z,0.95
2022-09-27T03:50:55.037Z,1.27
2022-09-27T03:53:21.917Z,1.73
2022-09-27T03:55:48.866Z,1.45
2022-09-27T03:58:15.725Z,1.08
2022-09-27T04:00:44.158Z,0.80
2022-09-27T04:03:12.255Z,0.80
2022-09-27T04:05:39.118Z,0.90
2022-09-27T04:08:11.067Z,0.40
2022-09-27T04:10:38.187Z,0.60
2022-09-27T04:13:05.391Z,1.38
2022-09-27T04:15:32.237Z,1.38
2022-09-27T04:17:59.124Z,1.05
2022-09-27T04:20:25.997Z,1.08
2022-09-27T04:22:52.861Z,0.68
2022-09-27T04:25:19.721Z,0.80
2022-09-27T04:27:48.065Z,0.88
2022-09-27T04:30:15.855Z,0.70
2022-09-27T04:32:44.280Z,0.75
2022-09-27T04:35:31.566Z,1.20
2022-09-27T04:37:59.141Z,0.47
2022-09-27T04:40:26.105Z,0.98
2022-09-27T04:42:53.246Z,0.47
2022-09-27T04:45:20.921Z,0.30
2022-09-27T04:47:49.438Z,0.60
2022-09-27T04:50:17.704Z,0.80
2022-09-27T04:52:44.649Z,0.60
2022-09-27T04:55:11.608Z,0.60
2022-09-27T04:57:38.472Z,0.50
2022-09-27T05:00:06.221Z,0.45
2022-09-27T05:02:33.112Z,0.50
2022-09-27T05:05:00.626Z,0.22
2022-09-27T05:07:28.490Z,0.70
2022-09-27T05:09:56.748Z,0.47
2022-09-27T05:12:26.877Z,0.30
2022-09-27T05:14:54.484Z,0.38
2022-09-27T05:17:22.410Z,0.40
2022-09-27T05:19:50.497Z,0.45
2022-09-27T05:22:17.773Z,0.28
2022-09-27T05:24:44.741Z,0.45
2022-09-27T05:27:16.241Z,0.20
2022-09-27T05:29:43.110Z,0.60
2022-09-27T05:32:09.938Z,0.40
2022-09-27T05:34:36.816Z,0.10
2022-09-27T05:37:03.700Z,0.55
2022-09-27T05:39:30.567Z,0.40
2022-09-27T05:41:57.674Z,0.40
2022-09-27T05:44:26.061Z,0.77
2022-09-27T05:46:52.977Z,0.85
2022-09-27T05:49:20.479Z,0.57
2022-09-27T05:51:47.780Z,0.30
2022-09-27T05:54:14.797Z,0.55
2022-09-27T05:56:41.769Z,0.52
2022-09-27T05:59:08.821Z,0.50
2022-09-27T06:01:35.825Z,0.32
2022-09-27T06:04:04.808Z,0.50
2022-09-27T06:06:34.294Z,0.50
2022-09-27T06:09:01.578Z,0.30
2022-09-27T06:11:28.771Z,0.77
2022-09-27T06:13:55.692Z,0.57
2022-09-27T06:16:22.640Z,0.52
2022-09-27T06:18:49.469Z,0.40
2022-09-27T06:21:16.413Z,0.57
2022-09-27T06:23:43.248Z,0.90
2022-09-27T06:26:11.015Z,0.98
2022-09-27T06:28:37.955Z,0.60
2022-09-27T06:31:09.171Z,0.40
2022-09-27T06:33:36.078Z,1.00
2022-09-27T06:36:04.809Z,0.45
2022-09-27T06:38:31.843Z,1.15
2022-09-27T06:41:02.726Z,1.02
2022-09-27T06:43:30.586Z,0.65
2022-09-27T06:46:04.855Z,0.98
2022-09-27T06:48:33.142Z,0.68
2022-09-27T06:51:00.280Z,1.10
2022-09-27T06:53:27.386Z,0.50
2022-09-27T06:55:59.343Z,1.20
2022-09-27T06:58:46.009Z,0.40
2022-09-27T07:01:13.325Z,0.68
2022-09-27T07:03:41.792Z,0.90
2022-09-27T07:06:20.822Z,0.90
2022-09-27T07:08:52.465Z,0.45
2022-09-27T07:11:20.170Z,0.30
2022-09-27T07:13:47.049Z,0.65
2022-09-27T07:16:14.857Z,0.60
2022-09-27T07:18:42.631Z,0.70
2022-09-27T07:21:09.805Z,0.65
2022-09-27T07:23:37.904Z,0.40
2022-09-27T07:26:06.948Z,0.75
2022-09-27T07:28:34.620Z,0.80
2022-09-27T07:31:02.839Z,0.52
2022-09-27T07:33:31.190Z,0.30
2022-09-27T07:35:58.154Z,0.73
2022-09-27T07:38:25.277Z,0.63
2022-09-27T07:40:52.786Z,0.57
2022-09-27T07:43:19.832Z,0.63
2022-09-27T07:45:47.082Z,0.30
2022-09-27T07:48:16.277Z,0.43
2022-09-27T07:50:43.360Z,0.50
2022-09-27T07:53:13.329Z,0.28
2022-09-27T07:55:41.024Z,0.40
2022-09-27T07:58:10.797Z,0.50
2022-09-27T08:00:39.689Z,0.45
2022-09-27T08:03:14.381Z,0.20
2022-09-27T08:05:42.361Z,0.50
2022-09-27T08:08:09.545Z,0.50
2022-09-27T08:10:36.739Z,0.90
2022-09-27T08:13:05.052Z,0.30
2022-09-27T08:15:33.210Z,0.35
2022-09-27T08:18:00.102Z,0.30
2022-09-27T08:20:27.056Z,0.30
2022-09-27T08:22:53.971Z,0.68
2022-09-27T08:25:24.392Z,0.20
2022-09-27T08:27:58.543Z,0.20
2022-09-27T08:30:26.372Z,0.15
2022-09-27T08:33:01.240Z,0.20
2022-09-27T08:35:29.270Z,0.20
2022-09-27T08:37:59.065Z,0.38
2022-09-27T08:40:44.656Z,0.15
2022-09-27T08:43:34.519Z,0.22
2022-09-27T08:46:37.672Z,0.10
2022-09-27T08:49:34.061Z,0.25
2022-09-27T08:52:04.464Z,0.30
2022-09-27T08:54:34.714Z,0.30
2022-09-27T08:57:10.418Z,0.20
2022-09-27T09:00:02.927Z,0.22
2022-09-27T09:02:29.932Z,0.28
2022-09-27T09:05:28.327Z,0.30
2022-09-27T09:08:19.831Z,0.35
2022-09-27T09:11:16.197Z,0.25
2022-09-27T09:14:13.664Z,0.40
2022-09-27T09:17:14.800Z,0.30
2022-09-27T09:20:03.352Z,0.50
2022-09-27T09:22:51.304Z,0.30
2022-09-27T09:25:30.309Z,0.85
2022-09-27T09:28:26.922Z,0.38
2022-09-27T09:31:11.859Z,0.43
2022-09-27T09:34:27.636Z,0.30
2022-09-27T09:37:10.849Z,0.32
2022-09-27T09:39:58.370Z,0.60
2022-09-27T09:43:07.993Z,0.20
2022-09-27T09:45:39.858Z,0.40
2022-09-27T09:48:30.325Z,0.55
2022-09-27T09:51:01.323Z,0.38
2022-09-27T09:53:31.286Z,0.50
2022-09-27T09:56:21.949Z,0.35
2022-09-27T09:59:00.626Z,0.40
2022-09-27T10:01:36.132Z,0.50
2022-09-27T10:04:03.620Z,0.40
2022-09-27T10:06:31.936Z,0.68
2022-09-27T10:09:00.199Z,0.60
2022-09-27T10:11:35.585Z,0.40
2022-09-27T10:14:02.525Z,0.38
2022-09-27T10:16:29.584Z,0.60
2022-09-27T10:19:02.228Z,0.30
2022-09-27T10:21:30.337Z,0.50
2022-09-27T10:24:11.302Z,0.30
2022-09-27T10:26:47.003Z,0.90
2022-09-27T10:29:19.382Z,0.35
2022-09-27T10:31:48.428Z,0.40
2022-09-27T10:34:29.884Z,0.20
2022-09-27T10:37:07.610Z,0.45
2022-09-27T10:39:35.761Z,0.30
2022-09-27T10:42:02.680Z,0.20
2022-09-27T10:44:32.605Z,0.30
2022-09-27T10:47:09.511Z,0.20
2022-09-27T10:49:39.828Z,0.30
2022-09-27T10:52:19.895Z,0.20
2022-09-27T10:54:58.590Z,0.20
2022-09-27T10:57:28.758Z,0.20
2022-09-27T11:00:00.642Z,0.15
2022-09-27T11:02:37.082Z,0.32
2022-09-27T11:05:15.766Z,0.43
2022-09-27T11:08:24.126Z,0.30
2022-09-27T11:11:12.818Z,0.30
2022-09-27T11:13:40.719Z,0.22
2022-09-27T11:16:22.499Z,0.30
2022-09-27T11:19:15.144Z,0.10
2022-09-27T11:21:57.901Z,0.20
2022-09-27T11:24:24.732Z,0.22
2022-09-27T11:27:10.222Z,0.38
2022-09-27T11:29:56.517Z,0.73
2022-09-27T11:32:51.778Z,0.30
2022-09-27T11:35:38.978Z,0.20
2022-09-27T11:38:52.364Z,0.30
2022-09-27T11:41:32.523Z,0.20
2022-09-27T11:44:08.233Z,0.10
2022-09-27T11:46:41.568Z,0.35
2022-09-27T11:49:28.324Z,0.10
2022-09-27T11:52:22.756Z,0.32
2022-09-27T11:55:14.513Z,0.20
2022-09-27T11:58:14.738Z,0.20
2022-09-27T12:01:10.961Z,0.63
2022-09-27T12:04:20.289Z,0.40
2022-09-27T12:07:20.055Z,0.30
2022-09-27T12:09:52.169Z,0.22
2022-09-27T12:12:41.353Z,0.17
2022-09-27T12:15:19.626Z,0.17
2022-09-27T12:17:50.377Z,0.30
2022-09-27T12:20:31.304Z,0.15
2022-09-27T12:23:01.125Z,0.60
2022-09-27T12:25:33.755Z,0.10
2022-09-27T12:28:07.115Z,0.10
2022-09-27T12:30:38.745Z,0.10
2022-09-27T12:33:30.842Z,0.40
2022-09-27T12:36:04.193Z,0.30
2022-09-27T12:38:55.342Z,0.30
2022-09-27T12:41:24.763Z,0.38
2022-09-27T12:43:51.889Z,0.25
2022-09-27T12:46:37.726Z,0.43
2022-09-27T12:49:50.124Z,0.88
2022-09-27T12:52:25.575Z,0.43
2022-09-27T12:55:15.555Z,1.13
2022-09-27T12:58:09.922Z,0.50
2022-09-27T13:01:09.998Z,0.40
2022-09-27T13:03:55.827Z,0.30
2022-09-27T13:06:52.802Z,0.80
2022-09-27T13:09:38.309Z,0.70
2022-09-27T13:12:21.507Z,0.40
2022-09-27T13:15:02.835Z,0.43
2022-09-27T13:17:44.232Z,0.40
2022-09-27T13:20:36.243Z,0.32
2022-09-27T13:23:21.469Z,0.35
2022-09-27T13:25:55.784Z,0.68
2022-09-27T13:28:29.325Z,0.43
2022-09-27T13:30:58.123Z,0.20
2022-09-27T13:33:51.696Z,0.50
2022-09-27T13:36:28.474Z,0.30
2022-09-27T13:39:14.339Z,0.35
2022-09-27T13:41:50.022Z,0.70
2022-09-27T13:44:35.561Z,0.73
2022-09-27T13:50:24.864Z,0.30
2022-09-27T13:52:57.808Z,0.20
2022-09-27T13:55:47.657Z,0.13
2022-09-27T13:58:41.086Z,0.35
2022-09-27T14:01:35.970Z,0.55
2022-09-27T14:04:13.144Z,0.47
2022-09-27T14:06:45.659Z,0.25
2022-09-27T14:09:20.930Z,0.63
2022-09-27T14:11:55.307Z,0.52
2022-09-27T14:14:26.318Z,0.57
2022-09-27T14:16:54.425Z,0.45
2022-09-27T14:19:26.142Z,0.20
2022-09-27T14:21:53.553Z,0.28
2022-09-27T14:24:24.380Z,0.40
2022-09-27T14:27:07.421Z,0.45
2022-09-27T14:29:43.346Z,0.68
2022-09-27T14:32:13.368Z,0.55
2022-09-27T14:34:40.681Z,0.38
2022-09-27T14:37:27.044Z,0.50
2022-09-27T14:40:06.782Z,0.40
2022-09-27T14:42:39.286Z,0.38
2022-09-27T14:45:31.656Z,0.80
2022-09-27T14:48:00.643Z,0.55
2022-09-27T14:50:29.915Z,0.22
2022-09-27T14:52:59.510Z,0.50
2022-09-27T14:55:34.959Z,0.85
2022-09-27T14:58:04.675Z,0.60
2022-09-27T15:00:35.400Z,0.70
2022-09-27T15:03:05.924Z,1.10
2022-09-27T15:05:34.470Z,0.70
2022-09-27T15:08:05.955Z,0.60
2022-09-27T15:10:35.976Z,0.38
2022-09-27T15:13:05.217Z,0.30
2022-09-27T15:15:38.286Z,0.45
2022-09-27T15:18:34.309Z,0.80
2022-09-27T15:21:07.493Z,0.40
2022-09-27T15:23:42.932Z,0.40
2022-09-27T15:26:15.934Z,0.20
2022-09-27T15:28:49.010Z,0.10
2022-09-27T15:31:16.558Z,0.30
2022-09-27T15:33:56.449Z,0.20
2022-09-27T15:36:52.796Z,0.20
2022-09-27T15:39:47.793Z,0.30
2022-09-27T15:42:19.750Z,0.20
2022-09-27T15:44:52.664Z,0.43
2022-09-27T15:47:39.350Z,0.20
2022-09-27T15:50:30.768Z,0.40
2022-09-27T15:53:07.154Z,0.30
2022-09-27T15:55:45.283Z,0.40
2022-09-27T15:58:20.261Z,0.40
2022-09-27T16:00:58.693Z,0.20
2022-09-27T16:03:26.961Z,0.28
2022-09-27T16:05:56.465Z,0.30
2022-09-27T16:08:28.632Z,0.63
2022-09-27T16:10:58.241Z,0.70
2022-09-27T16:13:31.644Z,0.30
2022-09-27T16:16:00.274Z,0.35
2022-09-27T16:18:30.554Z,0.30
2022-09-27T16:21:01.711Z,0.60
2022-09-27T16:23:28.790Z,0.60
2022-09-27T16:25:58.520Z,0.50
2022-09-27T16:28:25.682Z,0.47
2022-09-27T16:30:52.772Z,0.47
2022-09-27T16:33:29.974Z,0.65
2022-09-27T16:36:07.043Z,1.00
2022-09-27T16:38:34.093Z,0.30
2022-09-27T16:41:05.851Z,0.60
2022-09-27T16:43:32.839Z,0.32
2022-09-27T16:46:18.735Z,0.50
2022-09-27T16:48:47.058Z,1.00
2022-09-27T16:51:37.442Z,1.63
2022-09-27T16:54:06.221Z,0.90
2022-09-27T16:56:34.365Z,0.55
2022-09-27T16:59:04.221Z,0.50
2022-09-27T17:01:32.488Z,0.47
2022-09-27T17:03:59.827Z,0.43
2022-09-27T17:06:28.681Z,0.47
2022-09-27T17:09:13.637Z,0.30
2022-09-27T17:14:33.246Z,0.75
2022-09-27T17:17:09.343Z,0.50
2022-09-27T17:19:38.120Z,0.65
2022-09-27T17:22:51.371Z,0.63
2022-09-27T17:25:18.499Z,0.85
2022-09-27T17:27:45.495Z,1.17
2022-09-27T17:30:26.945Z,0.68
2022-09-27T17:32:53.997Z,0.80
2022-09-27T17:35:21.765Z,0.95
2022-09-27T17:38:15.320Z,0.70
2022-09-27T17:40:46.022Z,1.05
2022-09-27T17:44:09.983Z,0.88
2022-09-27T17:47:10.029Z,0.40
2022-09-27T17:53:02.585Z,0.50
2022-09-27T17:56:24.427Z,0.60
2022-09-27T17:59:45.970Z,1.58
2022-09-27T18:02:16.416Z,0.80
2022-09-27T18:21:11.152Z,0.35
2022-09-27T18:23:39.172Z,0.47
2022-09-27T18:26:36.682Z,0.70
2022-09-27T18:37:16.681Z,0.57
2022-09-27T18:40:44.367Z,0.25
2022-09-27T18:43:37.958Z,0.70
2022-09-27T18:46:41.575Z,0.30
2022-09-27T18:49:43.744Z,0.60
2022-09-27T18:56:16.118Z,0.60
2022-09-27T18:59:32.280Z,0.43
2022-09-27T19:02:52.736Z,0.63
2022-09-27T19:09:15.582Z,0.60
2022-09-27T19:11:50.183Z,0.50
2022-09-27T19:14:27.666Z,0.55
2022-09-27T19:16:54.955Z,0.50
2022-09-27T19:19:25.169Z,0.75
2022-09-27T19:21:52.611Z,1.23
2022-09-27T19:24:25.364Z,0.70
2022-09-27T19:27:02.885Z,0.60
2022-09-27T19:29:36.594Z,1.33
2022-09-27T19:32:03.945Z,0.70
2022-09-27T19:34:30.914Z,0.98
2022-09-27T19:36:58.449Z,0.77
2022-09-27T19:39:41.456Z,0.70
2022-09-27T19:42:08.650Z,0.40
2022-09-27T19:44:42.230Z,0.52
2022-09-27T19:47:22.076Z,0.68
2022-09-27T19:50:01.712Z,0.60
2022-09-27T19:53:04.085Z,0.43
2022-09-27T19:55:42.058Z,0.52
2022-09-27T19:58:09.159Z,1.13
2022-09-27T20:00:39.263Z,0.40
2022-09-27T20:03:06.602Z,0.50
2022-09-27T20:05:37.453Z,0.30
2022-09-27T20:08:04.586Z,0.50
2022-09-27T20:10:31.646Z,0.60
2022-09-27T20:12:59.477Z,0.45
2022-09-27T20:15:26.587Z,0.50
2022-09-27T20:17:57.139Z,0.70
2022-09-27T20:20:25.247Z,0.68
2022-09-27T20:22:58.562Z,0.68
2022-09-27T20:25:52.016Z,0.80
2022-09-27T20:28:19.030Z,0.65
2022-09-27T20:31:32.105Z,0.68
2022-09-27T20:33:59.598Z,0.40
2022-09-27T20:36:31.985Z,0.45
2022-09-27T20:39:03.818Z,0.40
2022-09-27T20:41:33.196Z,0.32
2022-09-27T20:44:04.340Z,0.30
2022-09-27T20:46:32.465Z,0.50
2022-09-27T20:49:03.138Z,0.57
2022-09-27T20:51:32.382Z,0.45
2022-09-27T20:54:00.442Z,0.30
2022-09-27T20:56:38.606Z,0.52
2022-09-27T20:59:11.556Z,0.40
2022-09-27T21:01:43.886Z,0.20
2022-09-27T21:04:12.951Z,0.32
2022-09-27T21:06:40.322Z,0.30
2022-09-27T21:09:08.623Z,0.30
2022-09-27T21:11:36.421Z,0.50
2022-09-27T21:14:03.520Z,0.70
2022-09-27T21:16:34.753Z,0.35
2022-09-27T21:19:02.261Z,0.40
2022-09-27T21:21:29.808Z,0.30
2022-09-27T21:24:00.815Z,0.50
2022-09-27T21:26:30.352Z,0.45
2022-09-27T21:29:00.121Z,0.57
2022-09-27T21:31:32.304Z,0.88
2022-09-27T21:34:01.954Z,0.40
2022-09-27T21:36:31.060Z,0.60
2022-09-27T21:38:58.624Z,0.65
2022-09-27T21:41:26.640Z,0.40
2022-09-27T21:43:53.954Z,0.50
2022-09-27T21:46:25.702Z,0.50
2022-09-27T21:48:55.829Z,0.60
2022-09-27T21:51:30.319Z,0.30
2022-09-27T21:54:01.848Z,0.60
2022-09-27T21:56:31.377Z,2.22
2022-09-27T21:58:58.775Z,0.57
2022-09-27T22:01:29.590Z,0.38
2022-09-27T22:03:57.375Z,0.60
2022-09-27T22:06:29.608Z,0.40
2022-09-27T22:08:58.019Z,0.52
2022-09-27T22:11:28.070Z,0.70
2022-09-27T22:13:55.682Z,0.45
2022-09-27T22:16:23.304Z,0.40
2022-09-27T22:18:53.452Z,0.60
2022-09-27T22:21:22.949Z,0.70
2022-09-27T22:23:57.436Z,0.45
2022-09-27T22:26:27.833Z,0.80
2022-09-27T22:28:55.010Z,0.60
2022-09-27T22:31:23.319Z,0.55
2022-09-27T22:33:55.620Z,0.63
2022-09-27T22:36:23.476Z,0.50
2022-09-27T22:38:51.486Z,0.40
2022-09-27T22:41:18.606Z,0.55
2022-09-27T22:43:45.533Z,0.30
2022-09-27T22:46:13.273Z,0.20
2022-09-27T22:48:40.905Z,0.40
2022-09-27T22:51:08.490Z,0.73
2022-09-27T22:53:36.331Z,0.20
2022-09-27T22:56:15.522Z,0.30
2022-09-27T22:58:44.110Z,0.20
2022-09-27T23:01:14.595Z,0.30
2022-09-27T23:03:41.643Z,0.30
2022-09-27T23:06:09.011Z,0.22
2022-09-27T23:08:37.418Z,0.38
2022-09-27T23:11:10.764Z,0.50
2022-09-27T23:13:40.613Z,0.20
2022-09-27T23:16:10.441Z,0.30
2022-09-27T23:18:38.287Z,0.22
2022-09-27T23:21:08.361Z,0.22
2022-09-27T23:23:37.600Z,0.20
2022-09-27T23:26:06.822Z,0.15
2022-09-27T23:28:34.210Z,0.15
2022-09-27T23:31:16.934Z,0.35
2022-09-27T23:33:48.515Z,0.30
2022-09-27T23:36:19.666Z,0.20
2022-09-27T23:38:48.659Z,0.10
2022-09-27T23:41:17.026Z,0.38
2022-09-27T23:43:44.896Z,0.28
2022-09-27T23:46:12.364Z,0.15
2022-09-27T23:48:40.056Z,0.20
2022-09-27T23:51:10.143Z,0.28
2022-09-27T23:53:38.281Z,0.52
2022-09-27T23:56:06.739Z,0.17
2022-09-27T23:58:34.758Z,0.20
